createdAt,value
2022-08-02T00:03:01.419Z,10.47
2022-08-02T00:08:06.952Z,5.70
2022-08-02T00:13:12.375Z,5.67
2022-08-02T00:18:17.801Z,6.17
2022-08-02T00:23:23.220Z,4.23
2022-08-02T00:28:28.751Z,4.97
2022-08-02T00:34:05.317Z,8.43
2022-08-02T00:38:41.331Z,4.97
2022-08-02T00:43:48.550Z,5.50
2022-08-02T00:48:55.561Z,2.60
2022-08-02T00:54:02.216Z,4.10
2022-08-02T00:59:07.583Z,10.70
2022-08-02T01:04:15.449Z,3.23
2022-08-02T01:09:24.105Z,3.67
2022-08-02T01:14:29.837Z,2.90
2022-08-02T01:19:54.841Z,8.40
2022-08-02T01:25:11.920Z,5.53
2022-08-02T01:30:19.396Z,3.97
2022-08-02T01:35:27.769Z,4.23
2022-08-02T01:40:36.363Z,5.70
2022-08-02T01:45:43.423Z,5.27
2022-08-02T01:50:50.037Z,6.23
2022-08-02T01:55:59.070Z,3.73
2022-08-02T02:01:05.480Z,4.47
2022-08-02T02:06:12.897Z,5.83
2022-08-02T02:12:05.987Z,4.97
2022-08-02T02:16:28.011Z,5.63
2022-08-02T02:21:35.113Z,6.37
2022-08-02T02:26:49.294Z,5.93
2022-08-02T02:31:50.815Z,4.93
2022-08-02T02:36:59.525Z,5.00
2022-08-02T02:42:08.146Z,8.97
2022-08-02T02:47:16.607Z,3.20
2022-08-02T02:52:22.055Z,3.50
2022-08-02T02:57:28.194Z,7.90
2022-08-02T03:02:34.840Z,6.27
2022-08-02T03:07:41.565Z,6.83
2022-08-02T03:12:47.091Z,6.03
2022-08-02T03:17:52.472Z,11.17
2022-08-02T03:22:57.882Z,4.37
2022-08-02T03:28:03.301Z,6.33
2022-08-02T03:33:08.856Z,4.37
2022-08-02T03:38:17.608Z,4.53
2022-08-02T03:43:23.992Z,6.13
2022-08-02T03:48:34.791Z,7.17
2022-08-02T03:53:40.447Z,5.77
2022-08-02T03:58:49.322Z,5.10
2022-08-02T04:03:54.000Z,8.07
2022-08-02T04:08:59.420Z,5.53
2022-08-02T04:14:11.393Z,4.93
2022-08-02T04:19:20.170Z,5.80
2022-08-02T04:24:28.552Z,4.17
2022-08-02T04:29:34.850Z,5.83
2022-08-02T04:34:40.395Z,4.10
2022-08-02T04:39:45.778Z,4.27
2022-08-02T04:44:53.098Z,4.57
2022-08-02T04:49:58.692Z,4.70
2022-08-02T04:55:04.421Z,4.80
2022-08-02T05:00:12.475Z,2.67
2022-08-02T05:05:20.136Z,6.67
2022-08-02T05:10:26.454Z,8.37
2022-08-02T05:15:33.484Z,4.80
2022-08-02T05:20:39.152Z,4.37
2022-08-02T05:25:44.643Z,3.83
2022-08-02T05:30:50.101Z,7.87
2022-08-02T05:35:58.164Z,5.67
2022-08-02T05:41:03.615Z,6.53
2022-08-02T05:46:09.560Z,10.23
2022-08-02T05:51:17.912Z,9.00
2022-08-02T05:56:26.266Z,6.57
2022-08-02T06:01:40.798Z,6.33
2022-08-02T06:06:49.330Z,5.13
2022-08-02T06:12:01.817Z,6.17
2022-08-02T06:17:07.141Z,5.27
2022-08-02T06:22:37.804Z,10.10
2022-08-02T06:27:25.073Z,6.83
2022-08-02T06:32:30.498Z,5.83
2022-08-02T06:37:48.040Z,6.33
2022-08-02T06:43:14.032Z,6.00
2022-08-02T06:48:22.098Z,6.70
2022-08-02T06:53:28.729Z,5.07
2022-08-02T06:58:34.119Z,5.63
2022-08-02T07:03:45.120Z,8.25
2022-08-02T07:09:11.309Z,5.57
2022-08-02T07:13:57.674Z,2.47
2022-08-02T07:19:03.028Z,6.33
2022-08-02T07:24:08.476Z,5.37
2022-08-02T07:29:13.867Z,5.23
2022-08-02T07:34:23.176Z,9.85
2022-08-02T07:39:31.131Z,7.35
2022-08-02T07:44:38.101Z,7.75
2022-08-02T07:49:43.520Z,4.87
2022-08-02T07:54:48.842Z,7.00
2022-08-02T07:59:54.154Z,7.53
2022-08-02T08:05:00.022Z,2.85
2022-08-02T08:10:07.050Z,3.75
2022-08-02T08:15:12.712Z,4.03
2022-08-02T08:20:18.061Z,5.05
2022-08-02T08:25:23.532Z,6.25
2022-08-02T08:30:30.471Z,5.65
2022-08-02T08:35:36.220Z,6.95
2022-08-02T08:40:42.478Z,6.28
2022-08-02T08:45:55.568Z,3.05
2022-08-02T08:51:02.355Z,5.33
2022-08-02T08:56:12.820Z,3.62
2022-08-02T09:01:17.452Z,5.78
2022-08-02T09:06:23.611Z,4.00
2022-08-02T09:11:29.845Z,8.75
2022-08-02T09:16:43.637Z,9.18
2022-08-02T09:21:51.153Z,2.75
2022-08-02T09:26:56.609Z,3.37
2022-08-02T09:32:06.666Z,11.83
2022-08-02T09:37:24.096Z,7.85
2022-08-02T09:42:30.840Z,2.00
2022-08-02T09:47:42.948Z,6.80
2022-08-02T09:52:48.677Z,6.37
2022-08-02T09:57:54.282Z,5.53
2022-08-02T10:03:19.308Z,10.43
2022-08-02T10:08:20.209Z,5.17
2022-08-02T10:13:25.619Z,3.70
2022-08-02T10:18:40.239Z,4.03
2022-08-02T10:23:41.007Z,5.22
2022-08-02T10:28:49.680Z,7.75
2022-08-02T10:33:57.195Z,5.22
2022-08-02T10:39:04.496Z,8.25
2022-08-02T10:44:24.068Z,4.05
2022-08-02T10:49:38.448Z,2.27
2022-08-02T10:54:38.391Z,3.30
2022-08-02T10:59:44.460Z,3.58
2022-08-02T11:04:53.475Z,3.77
2022-08-02T11:10:00.485Z,6.25
2022-08-02T11:15:07.693Z,4.85
2022-08-02T11:20:16.086Z,3.83
2022-08-02T11:25:32.099Z,1.50
2022-08-02T11:30:35.124Z,4.55
2022-08-02T11:35:41.603Z,1.00
2022-08-02T11:40:48.660Z,2.08
2022-08-02T11:45:56.688Z,6.75
2022-08-02T11:51:16.757Z,3.83
2022-08-02T11:56:31.209Z,6.15
2022-08-02T12:01:45.212Z,2.17
2022-08-02T12:06:47.316Z,2.05
2022-08-02T12:11:52.896Z,4.75
2022-08-02T12:17:16.917Z,3.45
2022-08-02T12:22:27.820Z,7.95
2022-08-02T12:27:36.297Z,2.65
2022-08-02T12:32:42.663Z,3.12
2022-08-02T12:37:50.656Z,8.55
2022-08-02T12:42:59.325Z,2.20
2022-08-02T12:48:05.014Z,4.03
2022-08-02T12:53:15.874Z,3.15
2022-08-02T12:58:21.480Z,3.98
2022-08-02T13:04:11.314Z,3.80
2022-08-02T13:08:35.166Z,1.67
2022-08-02T13:13:43.959Z,4.20
2022-08-02T13:18:49.958Z,4.30
2022-08-02T13:23:55.386Z,2.83
2022-08-02T13:29:00.789Z,4.95
2022-08-02T13:34:08.090Z,8.23
2022-08-02T13:39:13.537Z,5.22
2022-08-02T13:44:19.028Z,2.95
2022-08-02T13:49:49.641Z,8.85
2022-08-02T13:54:31.472Z,3.58
2022-08-02T13:59:56.871Z,2.72
2022-08-02T14:04:44.486Z,5.25
2022-08-02T14:09:49.826Z,3.25
2022-08-02T14:14:55.241Z,5.20
2022-08-02T14:20:00.657Z,4.17
2022-08-02T14:25:09.321Z,2.33
2022-08-02T14:30:14.062Z,4.25
2022-08-02T14:35:19.455Z,2.80
2022-08-02T14:40:31.403Z,6.20
2022-08-02T14:45:40.348Z,2.65
2022-08-02T14:50:42.770Z,5.28
2022-08-02T14:55:48.149Z,6.50
2022-08-02T15:00:53.649Z,4.60
2022-08-02T15:06:00.580Z,6.58
2022-08-02T15:11:06.505Z,3.92
2022-08-02T15:16:11.888Z,3.02
2022-08-02T15:21:40.451Z,2.80
2022-08-02T15:26:24.139Z,4.50
2022-08-02T15:31:33.474Z,2.70
2022-08-02T15:36:37.055Z,3.10
2022-08-02T15:41:42.390Z,2.08
2022-08-02T15:46:47.859Z,3.22
2022-08-02T15:51:54.093Z,7.12
2022-08-02T15:57:00.024Z,7.65
2022-08-02T16:02:07.282Z,5.05
2022-08-02T16:07:13.063Z,4.00
2022-08-02T16:12:18.494Z,2.20
2022-08-02T16:17:51.514Z,1.42
2022-08-02T16:22:32.293Z,6.70
2022-08-02T16:27:57.662Z,6.78
2022-08-02T16:32:44.770Z,6.12
2022-08-02T16:37:52.166Z,3.00
2022-08-02T16:42:57.516Z,4.45
2022-08-02T16:48:05.441Z,6.33
2022-08-02T16:53:13.273Z,4.58
2022-08-02T16:58:17.688Z,1.80
2022-08-02T17:03:25.082Z,2.12
2022-08-02T17:08:32.488Z,5.53
2022-08-02T17:13:38.131Z,9.68
2022-08-02T17:18:43.670Z,10.85
2022-08-02T17:24:07.804Z,3.27
2022-08-02T17:29:15.142Z,2.55
2022-08-02T17:34:04.631Z,1.45
2022-08-02T17:39:11.351Z,2.17
2022-08-02T17:44:37.245Z,4.75
2022-08-02T17:49:26.061Z,5.65
2022-08-02T17:54:31.501Z,3.83
2022-08-02T17:59:41.716Z,8.33
2022-08-02T18:04:46.165Z,4.12
2022-08-02T18:09:52.311Z,4.80
2022-08-02T18:14:59.070Z,10.18
2022-08-02T18:20:10.485Z,5.15
2022-08-02T18:25:11.723Z,7.12
2022-08-02T18:30:21.654Z,9.58
2022-08-02T18:35:25.769Z,10.15
2022-08-02T18:40:33.531Z,7.22
2022-08-02T18:46:06.489Z,7.37
2022-08-02T18:50:56.361Z,9.23
2022-08-02T18:56:03.391Z,6.73
2022-08-02T19:01:15.017Z,8.23
2022-08-02T19:06:19.808Z,10.05
2022-08-02T19:11:28.204Z,8.23
2022-08-02T19:16:37.621Z,9.15
2022-08-02T19:22:18.016Z,9.97
2022-08-02T19:26:51.926Z,14.20
2022-08-02T19:32:02.213Z,12.10
2022-08-02T19:37:01.746Z,11.20
2022-08-02T19:42:08.370Z,15.43
2022-08-02T19:47:19.491Z,12.00
2022-08-02T19:52:26.090Z,11.03
2022-08-02T19:57:34.568Z,9.83
2022-08-02T20:02:39.627Z,9.57
2022-08-02T20:07:55.229Z,14.33
2022-08-02T20:12:54.264Z,18.30
2022-08-02T20:17:59.716Z,11.87
2022-08-02T20:23:32.505Z,14.33
2022-08-02T20:28:22.935Z,14.43
2022-08-02T20:33:29.905Z,11.33
2022-08-02T20:38:37.549Z,18.07
2022-08-02T20:43:42.929Z,14.80
2022-08-02T20:48:49.717Z,13.47
2022-08-02T20:53:56.444Z,14.27
2022-08-02T20:59:03.947Z,16.63
2022-08-02T21:04:16.310Z,15.70
2022-08-02T21:09:17.572Z,18.10
2022-08-02T21:14:23.218Z,13.90
2022-08-02T21:19:30.236Z,10.93
2022-08-02T21:24:35.592Z,16.00
2022-08-02T21:29:41.941Z,11.53
2022-08-02T21:34:47.396Z,11.07
2022-08-02T21:39:54.176Z,14.57
2022-08-02T21:44:59.881Z,13.23
2022-08-02T21:50:10.080Z,10.60
2022-08-02T21:55:14.952Z,12.33
2022-08-02T22:00:28.599Z,14.23
2022-08-02T22:05:27.931Z,10.20
2022-08-02T22:10:36.670Z,15.10
2022-08-02T22:15:44.204Z,14.60
2022-08-02T22:20:51.410Z,10.60
2022-08-02T22:25:58.169Z,18.07
2022-08-02T22:31:05.149Z,13.60
2022-08-02T22:36:13.496Z,12.03
2022-08-02T22:41:20.528Z,13.43
2022-08-02T22:46:26.320Z,13.63
2022-08-02T22:51:52.762Z,15.37
2022-08-02T22:56:59.176Z,10.80
2022-08-02T23:02:06.235Z,15.50
2022-08-02T23:07:11.641Z,10.10
2022-08-02T23:12:18.811Z,17.23
2022-08-02T23:17:42.061Z,13.93
2022-08-02T23:22:47.532Z,12.83
2022-08-02T23:27:53.349Z,10.07
2022-08-02T23:32:59.307Z,12.47
2022-08-02T23:38:05.194Z,9.13
2022-08-02T23:43:14.253Z,11.33
2022-08-02T23:48:22.625Z,12.60
2022-08-02T23:53:28.153Z,10.10
2022-08-02T23:58:34.005Z,10.80
